sensor_id;sensor_type;location;lat;lon;timestamp;P1;durP1;ratioP1;P2;durP2;ratioP2
39778;SDS011;25454;49.878;8.618;2022-09-27T00:04:31;2.60;;;2.37;;
39778;SDS011;25454;49.878;8.618;2022-09-27T00:09:32;4.10;;;2.60;;
39778;SDS011;25454;49.878;8.618;2022-09-27T00:14:32;2.77;;;2.20;;
39778;SDS011;25454;49.878;8.618;2022-09-27T00:19:33;2.80;;;2.20;;
39778;SDS011;25454;49.878;8.618;2022-09-27T00:24:34;4.87;;;2.30;;
39778;SDS011;25454;49.878;8.618;2022-09-27T00:29:34;3.73;;;2.00;;
39778;SDS011;25454;49.878;8.618;2022-09-27T00:34:36;2.40;;;1.73;;
39778;SDS011;25454;49.878;8.618;2022-09-27T00:39:37;1.97;;;1.50;;
39778;SDS011;25454;49.878;8.618;2022-09-27T00:55:00;2.23;;;1.57;;
39778;SDS011;25454;49.878;8.618;2022-09-27T01:00:07;1.70;;;1.60;;
39778;SDS011;25454;49.878;8.618;2022-09-27T01:05:24;2.13;;;1.70;;
39778;SDS011;25454;49.878;8.618;2022-09-27T01:10:28;1.63;;;1.50;;
39778;SDS011;25454;49.878;8.618;2022-09-27T01:15:46;1.93;;;1.43;;
39778;SDS011;25454;49.878;8.618;2022-09-27T01:21:36;1.50;;;1.40;;
39778;SDS011;25454;49.878;8.618;2022-09-27T01:32:07;6.40;;;1.87;;
39778;SDS011;25454;49.878;8.618;2022-09-27T01:48:36;4.00;;;1.73;;
39778;SDS011;25454;49.878;8.618;2022-09-27T01:53:44;1.50;;;1.40;;
39778;SDS011;25454;49.878;8.618;2022-09-27T02:03:55;2.13;;;1.30;;
39778;SDS011;25454;49.878;8.618;2022-09-27T02:09:01;4.43;;;1.70;;
39778;SDS011;25454;49.878;8.618;2022-09-27T02:14:19;6.57;;;1.90;;
39778;SDS011;25454;49.878;8.618;2022-09-27T02:24:52;3.50;;;1.53;;
39778;SDS011;25454;49.878;8.618;2022-09-27T02:30:01;3.53;;;1.60;;
39778;SDS011;25454;49.878;8.618;2022-09-27T02:40:13;1.93;;;1.40;;
39778;SDS011;25454;49.878;8.618;2022-09-27T02:45:15;1.33;;;1.23;;
39778;SDS011;25454;49.878;8.618;2022-09-27T02:50:22;2.17;;;1.60;;
39778;SDS011;25454;49.878;8.618;2022-09-27T03:01:05;3.83;;;1.50;;
39778;SDS011;25454;49.878;8.618;2022-09-27T03:06:12;3.87;;;1.50;;
39778;SDS011;25454;49.878;8.618;2022-09-27T03:11:16;3.20;;;1.43;;
39778;SDS011;25454;49.878;8.618;2022-09-27T03:16:20;2.43;;;1.30;;
39778;SDS011;25454;49.878;8.618;2022-09-27T03:21:20;4.87;;;1.63;;
39778;SDS011;25454;49.878;8.618;2022-09-27T03:26:21;4.43;;;1.30;;
39778;SDS011;25454;49.878;8.618;2022-09-27T03:31:21;6.63;;;1.43;;
39778;SDS011;25454;49.878;8.618;2022-09-27T03:36:22;1.90;;;1.00;;
39778;SDS011;25454;49.878;8.618;2022-09-27T03:41:23;3.10;;;1.20;;
39778;SDS011;25454;49.878;8.618;2022-09-27T03:46:24;2.23;;;0.87;;
39778;SDS011;25454;49.878;8.618;2022-09-27T03:51:25;1.00;;;0.90;;
39778;SDS011;25454;49.878;8.618;2022-09-27T03:56:26;2.03;;;1.10;;
39778;SDS011;25454;49.878;8.618;2022-09-27T04:01:27;3.63;;;1.43;;
39778;SDS011;25454;49.878;8.618;2022-09-27T04:06:27;4.50;;;0.70;;
39778;SDS011;25454;49.878;8.618;2022-09-27T04:11:28;3.50;;;0.57;;
39778;SDS011;25454;49.878;8.618;2022-09-27T04:16:29;0.40;;;0.40;;
39778;SDS011;25454;49.878;8.618;2022-09-27T04:21:31;1.97;;;0.60;;
39778;SDS011;25454;49.878;8.618;2022-09-27T04:26:32;1.43;;;0.30;;
39778;SDS011;25454;49.878;8.618;2022-09-27T04:31:32;2.17;;;0.70;;
39778;SDS011;25454;49.878;8.618;2022-09-27T04:36:33;2.67;;;0.40;;
39778;SDS011;25454;49.878;8.618;2022-09-27T04:41:34;2.73;;;0.60;;
39778;SDS011;25454;49.878;8.618;2022-09-27T04:46:35;0.63;;;0.60;;
39778;SDS011;25454;49.878;8.618;2022-09-27T04:51:35;3.17;;;0.63;;
39778;SDS011;25454;49.878;8.618;2022-09-27T04:56:36;1.83;;;0.73;;
39778;SDS011;25454;49.878;8.618;2022-09-27T05:01:37;0.87;;;0.60;;
39778;SDS011;25454;49.878;8.618;2022-09-27T05:06:37;0.87;;;0.70;;
39778;SDS011;25454;49.878;8.618;2022-09-27T05:11:38;1.57;;;1.10;;
39778;SDS011;25454;49.878;8.618;2022-09-27T05:16:39;3.70;;;1.10;;
39778;SDS011;25454;49.878;8.618;2022-09-27T05:21:39;3.93;;;0.90;;
39778;SDS011;25454;49.878;8.618;2022-09-27T05:26:40;1.27;;;1.00;;
39778;SDS011;25454;49.878;8.618;2022-09-27T05:31:41;3.40;;;0.90;;
39778;SDS011;25454;49.878;8.618;2022-09-27T05:36:42;2.00;;;0.70;;
39778;SDS011;25454;49.878;8.618;2022-09-27T05:41:45;1.50;;;0.60;;
39778;SDS011;25454;49.878;8.618;2022-09-27T05:46:49;2.20;;;0.90;;
39778;SDS011;25454;49.878;8.618;2022-09-27T05:51:50;1.57;;;0.90;;
39778;SDS011;25454;49.878;8.618;2022-09-27T05:56:54;3.00;;;0.70;;
39778;SDS011;25454;49.878;8.618;2022-09-27T06:01:59;1.90;;;0.80;;
39778;SDS011;25454;49.878;8.618;2022-09-27T06:07:00;2.03;;;0.60;;
39778;SDS011;25454;49.878;8.618;2022-09-27T06:12:01;2.10;;;0.87;;
39778;SDS011;25454;49.878;8.618;2022-09-27T06:17:02;2.30;;;0.80;;
39778;SDS011;25454;49.878;8.618;2022-09-27T06:22:03;0.83;;;0.60;;
39778;SDS011;25454;49.878;8.618;2022-09-27T06:27:04;1.17;;;1.00;;
39778;SDS011;25454;49.878;8.618;2022-09-27T06:32:04;2.90;;;0.60;;
39778;SDS011;25454;49.878;8.618;2022-09-27T06:37:05;3.80;;;0.50;;
39778;SDS011;25454;49.878;8.618;2022-09-27T06:42:06;1.23;;;0.40;;
39778;SDS011;25454;49.878;8.618;2022-09-27T06:47:10;1.90;;;0.40;;
39778;SDS011;25454;49.878;8.618;2022-09-27T06:52:11;0.50;;;0.40;;
39778;SDS011;25454;49.878;8.618;2022-09-27T06:57:11;2.47;;;0.67;;
39778;SDS011;25454;49.878;8.618;2022-09-27T07:02:37;0.57;;;0.37;;
39778;SDS011;25454;49.878;8.618;2022-09-27T07:07:39;2.73;;;0.40;;
39778;SDS011;25454;49.878;8.618;2022-09-27T07:12:39;0.57;;;0.43;;
39778;SDS011;25454;49.878;8.618;2022-09-27T07:17:40;1.27;;;0.50;;
39778;SDS011;25454;49.878;8.618;2022-09-27T07:22:41;1.67;;;0.30;;
39778;SDS011;25454;49.878;8.618;2022-09-27T07:27:44;1.00;;;0.60;;
39778;SDS011;25454;49.878;8.618;2022-09-27T07:32:44;0.87;;;0.40;;
39778;SDS011;25454;49.878;8.618;2022-09-27T07:37:45;3.23;;;0.77;;
39778;SDS011;25454;49.878;8.618;2022-09-27T07:42:46;1.90;;;0.60;;
39778;SDS011;25454;49.878;8.618;2022-09-27T07:47:46;0.90;;;0.70;;
39778;SDS011;25454;49.878;8.618;2022-09-27T07:52:48;1.30;;;0.77;;
39778;SDS011;25454;49.878;8.618;2022-09-27T07:58:00;1.43;;;0.43;;
39778;SDS011;25454;49.878;8.618;2022-09-27T08:03:06;0.67;;;0.40;;
39778;SDS011;25454;49.878;8.618;2022-09-27T08:08:07;2.90;;;0.73;;
39778;SDS011;25454;49.878;8.618;2022-09-27T08:13:08;4.37;;;0.40;;
39778;SDS011;25454;49.878;8.618;2022-09-27T08:18:10;1.33;;;0.47;;
39778;SDS011;25454;49.878;8.618;2022-09-27T08:23:10;0.93;;;0.30;;
39778;SDS011;25454;49.878;8.618;2022-09-27T08:28:11;1.27;;;0.47;;
39778;SDS011;25454;49.878;8.618;2022-09-27T08:33:12;0.53;;;0.40;;
39778;SDS011;25454;49.878;8.618;2022-09-27T08:38:12;0.50;;;0.40;;
39778;SDS011;25454;49.878;8.618;2022-09-27T08:48:45;1.10;;;0.30;;
39778;SDS011;25454;49.878;8.618;2022-09-27T08:54:01;0.27;;;0.20;;
39778;SDS011;25454;49.878;8.618;2022-09-27T09:04:08;0.70;;;0.30;;
39778;SDS011;25454;49.878;8.618;2022-09-27T09:09:30;0.50;;;0.40;;
39778;SDS011;25454;49.878;8.618;2022-09-27T09:14:57;1.80;;;0.30;;
39778;SDS011;25454;49.878;8.618;2022-09-27T09:30:43;1.20;;;0.50;;
39778;SDS011;25454;49.878;8.618;2022-09-27T09:46:20;0.87;;;0.40;;
39778;SDS011;25454;49.878;8.618;2022-09-27T09:51:27;0.53;;;0.50;;
39778;SDS011;25454;49.878;8.618;2022-09-27T09:56:44;0.93;;;0.37;;
39778;SDS011;25454;49.878;8.618;2022-09-27T10:01:47;2.40;;;0.40;;
39778;SDS011;25454;49.878;8.618;2022-09-27T10:06:48;3.13;;;0.50;;
39778;SDS011;25454;49.878;8.618;2022-09-27T10:11:50;0.60;;;0.50;;
39778;SDS011;25454;49.878;8.618;2022-09-27T10:16:52;1.90;;;0.60;;
39778;SDS011;25454;49.878;8.618;2022-09-27T10:22:09;2.00;;;0.60;;
39778;SDS011;25454;49.878;8.618;2022-09-27T10:27:17;0.70;;;0.40;;
39778;SDS011;25454;49.878;8.618;2022-09-27T10:32:20;1.57;;;0.40;;
39778;SDS011;25454;49.878;8.618;2022-09-27T10:37:24;0.73;;;0.30;;
39778;SDS011;25454;49.878;8.618;2022-09-27T10:47:35;0.30;;;0.30;;
39778;SDS011;25454;49.878;8.618;2022-09-27T10:52:39;2.23;;;0.40;;
39778;SDS011;25454;49.878;8.618;2022-09-27T10:57:46;2.20;;;0.40;;
39778;SDS011;25454;49.878;8.618;2022-09-27T11:02:53;0.60;;;0.30;;
39778;SDS011;25454;49.878;8.618;2022-09-27T11:07:57;2.23;;;0.50;;
39778;SDS011;25454;49.878;8.618;2022-09-27T11:13:12;0.53;;;0.20;;
39778;SDS011;25454;49.878;8.618;2022-09-27T11:18:24;1.30;;;0.40;;
39778;SDS011;25454;49.878;8.618;2022-09-27T11:34:49;0.97;;;0.60;;
39778;SDS011;25454;49.878;8.618;2022-09-27T11:45:55;1.00;;;0.83;;
39778;SDS011;25454;49.878;8.618;2022-09-27T11:56:46;1.30;;;0.57;;
39778;SDS011;25454;49.878;8.618;2022-09-27T12:08:00;0.87;;;0.43;;
39778;SDS011;25454;49.878;8.618;2022-09-27T12:12:45;3.13;;;0.70;;
39778;SDS011;25454;49.878;8.618;2022-09-27T12:17:55;3.83;;;1.10;;
39778;SDS011;25454;49.878;8.618;2022-09-27T12:23:02;2.27;;;0.93;;
39778;SDS011;25454;49.878;8.618;2022-09-27T12:28:32;3.43;;;0.90;;
39778;SDS011;25454;49.878;8.618;2022-09-27T12:33:46;3.33;;;0.70;;
39778;SDS011;25454;49.878;8.618;2022-09-27T12:39:14;1.77;;;0.70;;
39778;SDS011;25454;49.878;8.618;2022-09-27T12:44:17;2.10;;;0.80;;
39778;SDS011;25454;49.878;8.618;2022-09-27T12:55:05;3.43;;;1.00;;
39778;SDS011;25454;49.878;8.618;2022-09-27T13:10:27;2.33;;;0.90;;
39778;SDS011;25454;49.878;8.618;2022-09-27T13:15:34;2.47;;;0.73;;
39778;SDS011;25454;49.878;8.618;2022-09-27T13:20:41;1.27;;;0.60;;
39778;SDS011;25454;49.878;8.618;2022-09-27T13:25:54;1.83;;;0.60;;
39778;SDS011;25454;49.878;8.618;2022-09-27T13:31:08;3.17;;;0.60;;
39778;SDS011;25454;49.878;8.618;2022-09-27T13:41:22;1.47;;;0.50;;
39778;SDS011;25454;49.878;8.618;2022-09-27T13:46:23;1.30;;;0.50;;
39778;SDS011;25454;49.878;8.618;2022-09-27T13:51:45;1.33;;;0.60;;
39778;SDS011;25454;49.878;8.618;2022-09-27T13:56:50;1.37;;;0.47;;
39778;SDS011;25454;49.878;8.618;2022-09-27T14:07:34;0.73;;;0.47;;
39778;SDS011;25454;49.878;8.618;2022-09-27T14:12:39;1.17;;;0.50;;
39778;SDS011;25454;49.878;8.618;2022-09-27T14:17:41;0.83;;;0.63;;
39778;SDS011;25454;49.878;8.618;2022-09-27T14:22:51;0.67;;;0.67;;
39778;SDS011;25454;49.878;8.618;2022-09-27T14:27:53;2.07;;;0.70;;
39778;SDS011;25454;49.878;8.618;2022-09-27T14:32:55;0.97;;;0.60;;
39778;SDS011;25454;49.878;8.618;2022-09-27T14:38:04;0.57;;;0.43;;
39778;SDS011;25454;49.878;8.618;2022-09-27T14:43:09;0.70;;;0.37;;
39778;SDS011;25454;49.878;8.618;2022-09-27T14:53:32;2.10;;;0.60;;
39778;SDS011;25454;49.878;8.618;2022-09-27T14:58:37;0.47;;;0.47;;
39778;SDS011;25454;49.878;8.618;2022-09-27T15:03:41;1.87;;;0.73;;
39778;SDS011;25454;49.878;8.618;2022-09-27T15:08:43;5.30;;;0.83;;
39778;SDS011;25454;49.878;8.618;2022-09-27T15:13:48;1.67;;;0.90;;
39778;SDS011;25454;49.878;8.618;2022-09-27T15:19:02;3.00;;;1.00;;
39778;SDS011;25454;49.878;8.618;2022-09-27T15:29:35;1.43;;;0.70;;
39778;SDS011;25454;49.878;8.618;2022-09-27T15:34:35;1.90;;;0.70;;
39778;SDS011;25454;49.878;8.618;2022-09-27T15:39:38;3.90;;;0.90;;
39778;SDS011;25454;49.878;8.618;2022-09-27T15:44:46;1.37;;;0.83;;
39778;SDS011;25454;49.878;8.618;2022-09-27T15:49:52;1.40;;;0.87;;
39778;SDS011;25454;49.878;8.618;2022-09-27T15:54:52;2.67;;;1.30;;
39778;SDS011;25454;49.878;8.618;2022-09-27T15:59:53;2.30;;;1.33;;
39778;SDS011;25454;49.878;8.618;2022-09-27T16:04:53;2.40;;;1.07;;
39778;SDS011;25454;49.878;8.618;2022-09-27T16:09:54;3.70;;;1.30;;
39778;SDS011;25454;49.878;8.618;2022-09-27T16:14:55;2.23;;;1.13;;
39778;SDS011;25454;49.878;8.618;2022-09-27T16:19:56;1.53;;;0.70;;
39778;SDS011;25454;49.878;8.618;2022-09-27T16:24:57;2.27;;;1.40;;
39778;SDS011;25454;49.878;8.618;2022-09-27T16:29:57;3.87;;;1.33;;
39778;SDS011;25454;49.878;8.618;2022-09-27T16:35:01;3.83;;;1.00;;
39778;SDS011;25454;49.878;8.618;2022-09-27T16:40:03;1.43;;;0.93;;
39778;SDS011;25454;49.878;8.618;2022-09-27T16:45:06;2.90;;;1.50;;
39778;SDS011;25454;49.878;8.618;2022-09-27T16:50:08;4.83;;;1.80;;
39778;SDS011;25454;49.878;8.618;2022-09-27T16:55:30;2.67;;;1.17;;
39778;SDS011;25454;49.878;8.618;2022-09-27T17:00:31;2.63;;;1.20;;
39778;SDS011;25454;49.878;8.618;2022-09-27T17:05:32;2.57;;;1.13;;
39778;SDS011;25454;49.878;8.618;2022-09-27T17:10:33;2.10;;;1.37;;
39778;SDS011;25454;49.878;8.618;2022-09-27T17:15:37;1.83;;;1.50;;
39778;SDS011;25454;49.878;8.618;2022-09-27T17:20:38;1.27;;;0.77;;
39778;SDS011;25454;49.878;8.618;2022-09-27T17:25:41;5.10;;;1.40;;
39778;SDS011;25454;49.878;8.618;2022-09-27T17:30:42;2.50;;;1.20;;
39778;SDS011;25454;49.878;8.618;2022-09-27T17:35:44;4.77;;;0.90;;
39778;SDS011;25454;49.878;8.618;2022-09-27T17:40:45;4.30;;;1.73;;
39778;SDS011;25454;49.878;8.618;2022-09-27T17:45:46;1.93;;;1.30;;
39778;SDS011;25454;49.878;8.618;2022-09-27T17:50:47;1.43;;;1.20;;
39778;SDS011;25454;49.878;8.618;2022-09-27T17:55:47;1.80;;;1.33;;
39778;SDS011;25454;49.878;8.618;2022-09-27T18:00:48;2.43;;;1.50;;
39778;SDS011;25454;49.878;8.618;2022-09-27T18:05:49;6.40;;;1.30;;
39778;SDS011;25454;49.878;8.618;2022-09-27T18:10:49;1.67;;;1.17;;
39778;SDS011;25454;49.878;8.618;2022-09-27T18:15:54;1.43;;;1.10;;
39778;SDS011;25454;49.878;8.618;2022-09-27T18:20:59;2.73;;;1.30;;
39778;SDS011;25454;49.878;8.618;2022-09-27T18:26:02;1.23;;;0.87;;
39778;SDS011;25454;49.878;8.618;2022-09-27T18:31:11;2.07;;;1.30;;
39778;SDS011;25454;49.878;8.618;2022-09-27T18:36:15;1.87;;;1.00;;
39778;SDS011;25454;49.878;8.618;2022-09-27T18:41:18;2.20;;;1.10;;
39778;SDS011;25454;49.878;8.618;2022-09-27T18:46:20;2.70;;;1.03;;
39778;SDS011;25454;49.878;8.618;2022-09-27T18:51:22;1.27;;;0.87;;
39778;SDS011;25454;49.878;8.618;2022-09-27T18:56:28;3.40;;;1.20;;
39778;SDS011;25454;49.878;8.618;2022-09-27T19:01:30;1.47;;;1.37;;
39778;SDS011;25454;49.878;8.618;2022-09-27T19:06:32;3.23;;;1.17;;
39778;SDS011;25454;49.878;8.618;2022-09-27T19:11:36;2.63;;;1.27;;
39778;SDS011;25454;49.878;8.618;2022-09-27T19:16:38;4.23;;;1.17;;
39778;SDS011;25454;49.878;8.618;2022-09-27T19:21:38;2.07;;;0.90;;
39778;SDS011;25454;49.878;8.618;2022-09-27T19:26:39;4.00;;;1.40;;
39778;SDS011;25454;49.878;8.618;2022-09-27T19:31:40;2.90;;;1.10;;
39778;SDS011;25454;49.878;8.618;2022-09-27T19:36:41;2.27;;;1.50;;
39778;SDS011;25454;49.878;8.618;2022-09-27T19:41:41;4.43;;;1.73;;
39778;SDS011;25454;49.878;8.618;2022-09-27T19:46:42;2.40;;;1.70;;
39778;SDS011;25454;49.878;8.618;2022-09-27T19:51:44;1.83;;;1.40;;
39778;SDS011;25454;49.878;8.618;2022-09-27T19:56:44;3.60;;;1.67;;
39778;SDS011;25454;49.878;8.618;2022-09-27T20:01:45;2.43;;;1.60;;
39778;SDS011;25454;49.878;8.618;2022-09-27T20:06:46;2.23;;;1.90;;
39778;SDS011;25454;49.878;8.618;2022-09-27T20:11:47;3.07;;;1.67;;
39778;SDS011;25454;49.878;8.618;2022-09-27T20:16:48;2.63;;;1.70;;
39778;SDS011;25454;49.878;8.618;2022-09-27T20:21:49;4.57;;;1.60;;
39778;SDS011;25454;49.878;8.618;2022-09-27T20:26:50;2.20;;;1.90;;
39778;SDS011;25454;49.878;8.618;2022-09-27T20:31:51;1.87;;;1.63;;
39778;SDS011;25454;49.878;8.618;2022-09-27T20:36:51;3.20;;;1.43;;
39778;SDS011;25454;49.878;8.618;2022-09-27T20:41:52;5.53;;;2.20;;
39778;SDS011;25454;49.878;8.618;2022-09-27T20:46:53;3.97;;;2.10;;
39778;SDS011;25454;49.878;8.618;2022-09-27T20:51:53;3.83;;;2.20;;
39778;SDS011;25454;49.878;8.618;2022-09-27T20:56:54;3.67;;;2.17;;
39778;SDS011;25454;49.878;8.618;2022-09-27T21:01:55;4.10;;;2.60;;
39778;SDS011;25454;49.878;8.618;2022-09-27T21:06:55;6.70;;;2.60;;
39778;SDS011;25454;49.878;8.618;2022-09-27T21:11:57;4.20;;;2.23;;
39778;SDS011;25454;49.878;8.618;2022-09-27T21:16:58;3.20;;;2.40;;
39778;SDS011;25454;49.878;8.618;2022-09-27T21:22:02;3.07;;;2.20;;
39778;SDS011;25454;49.878;8.618;2022-09-27T21:27:02;4.43;;;2.20;;
39778;SDS011;25454;49.878;8.618;2022-09-27T21:32:03;7.50;;;2.33;;
39778;SDS011;25454;49.878;8.618;2022-09-27T21:37:04;4.87;;;2.20;;
39778;SDS011;25454;49.878;8.618;2022-09-27T21:42:05;3.00;;;2.00;;
39778;SDS011;25454;49.878;8.618;2022-09-27T21:47:07;6.63;;;2.20;;
39778;SDS011;25454;49.878;8.618;2022-09-27T21:52:07;4.57;;;1.60;;
39778;SDS011;25454;49.878;8.618;2022-09-27T21:57:08;4.57;;;1.60;;
39778;SDS011;25454;49.878;8.618;2022-09-27T22:02:08;3.13;;;2.10;;
39778;SDS011;25454;49.878;8.618;2022-09-27T22:07:09;3.23;;;1.77;;
39778;SDS011;25454;49.878;8.618;2022-09-27T22:12:10;3.83;;;1.40;;
39778;SDS011;25454;49.878;8.618;2022-09-27T22:17:10;5.90;;;2.30;;
39778;SDS011;25454;49.878;8.618;2022-09-27T22:22:11;2.93;;;1.77;;
39778;SDS011;25454;49.878;8.618;2022-09-27T22:27:11;4.70;;;1.60;;
39778;SDS011;25454;49.878;8.618;2022-09-27T22:32:12;6.30;;;2.07;;
39778;SDS011;25454;49.878;8.618;2022-09-27T22:37:13;4.33;;;1.43;;
39778;SDS011;25454;49.878;8.618;2022-09-27T22:42:13;5.23;;;1.20;;
39778;SDS011;25454;49.878;8.618;2022-09-27T22:47:14;4.57;;;2.10;;
39778;SDS011;25454;49.878;8.618;2022-09-27T22:52:16;2.43;;;1.30;;
39778;SDS011;25454;49.878;8.618;2022-09-27T22:57:16;3.97;;;1.50;;
39778;SDS011;25454;49.878;8.618;2022-09-27T23:02:17;5.03;;;1.53;;
39778;SDS011;25454;49.878;8.618;2022-09-27T23:07:18;3.97;;;1.80;;
39778;SDS011;25454;49.878;8.618;2022-09-27T23:12:21;2.30;;;1.30;;
39778;SDS011;25454;49.878;8.618;2022-09-27T23:17:22;3.93;;;1.67;;
39778;SDS011;25454;49.878;8.618;2022-09-27T23:22:22;2.87;;;1.50;;
39778;SDS011;25454;49.878;8.618;2022-09-27T23:27:23;3.07;;;1.90;;
39778;SDS011;25454;49.878;8.618;2022-09-27T23:32:42;7.60;;;1.67;;
39778;SDS011;25454;49.878;8.618;2022-09-27T23:37:45;4.27;;;1.70;;
39778;SDS011;25454;49.878;8.618;2022-09-27T23:42:46;3.53;;;1.73;;
39778;SDS011;25454;49.878;8.618;2022-09-27T23:47:47;4.10;;;2.00;;
39778;SDS011;25454;49.878;8.618;2022-09-27T23:52:47;9.03;;;2.70;;
39778;SDS011;25454;49.878;8.618;2022-09-27T23:57:48;5.30;;;2.47;;
